Time;durP1;ratioP1;P1;durP2;ratioP2;P2;SDS_P1;SDS_P2;PMS_P1;PMS_P2;Temp;Humidity;BMP_temperature;BMP_pressure;BME280_temperature;BME280_humidity;BME280_pressure;Samples;Min_cycle;Max_cycle;Signal;HPM_P1;HPM_P2
2022/11/06 00:00:37;;;;;;;19.65;12.43;;;;;;;7.61;75.34;101104.47;4147395;28;20046;-66
2022/11/06 00:02:41;;;;;;;19.88;11.93;;;;;;;7.62;75.11;101108.81;4145970;28;20108;-66
2022/11/06 00:04:47;;;;;;;15.77;12.98;;;;;;;7.60;75.15;101107.88;4146917;28;20073;-65
2022/11/06 00:06:49;;;;;;;17.08;12.68;;;;;;;7.58;75.10;101106.94;4131173;28;20038;-66
2022/11/06 00:08:52;;;;;;;21.83;12.93;;;;;;;7.55;75.00;101103.34;4131119;28;20046;-65
2022/11/06 00:10:55;;;;;;;20.45;14.13;;;;;;;7.49;75.23;101109.16;4131074;28;20047;-65
2022/11/06 00:12:59;;;;;;;19.17;12.57;;;;;;;7.50;75.60;101106.69;4137605;28;20095;-66
2022/11/06 00:15:02;;;;;;;24.77;12.88;;;;;;;7.47;75.76;101106.53;4145825;28;20038;-66
2022/11/06 00:17:04;;;;;;;24.58;13.35;;;;;;;7.47;75.67;101105.66;4147297;28;20077;-66
2022/11/06 00:19:09;;;;;;;17.63;12.80;;;;;;;7.45;75.47;101108.19;4147307;28;20046;-66
2022/11/06 00:21:14;;;;;;;18.23;12.65;;;;;;;7.43;75.67;101108.94;4147180;28;20042;-68
2022/11/06 00:23:17;;;;;;;19.10;12.85;;;;;;;7.44;75.56;101111.59;4145650;28;20104;-66
2022/11/06 00:25:19;;;;;;;21.20;11.95;;;;;;;7.47;75.64;101110.84;4161606;28;20041;-67
2022/11/06 00:27:22;;;;;;;21.83;12.00;;;;;;;7.45;75.69;101112.50;4145751;28;20096;-66
2022/11/06 00:29:25;;;;;;;19.30;12.25;;;;;;;7.48;75.45;101107.44;4148428;28;20539;-66
2022/11/06 00:31:29;;;;;;;18.08;12.80;;;;;;;7.48;75.15;101108.31;4150151;28;20111;-66
2022/11/06 00:33:33;;;;;;;18.70;11.85;;;;;;;7.43;75.38;101106.38;4149718;28;20038;-66
2022/11/06 00:35:41;;;;;;;18.00;12.05;;;;;;;7.44;75.15;101095.19;4150075;28;20448;-66
2022/11/06 00:37:44;;;;;;;17.50;11.70;;;;;;;7.33;75.13;101090.50;4148919;28;20483;-66
2022/11/06 00:39:46;;;;;;;18.10;11.73;;;;;;;7.33;75.26;101092.22;4149877;28;20092;-66
2022/11/06 00:41:49;;;;;;;15.30;11.60;;;;;;;7.33;75.27;101087.94;4148480;28;20053;-66
2022/11/06 00:43:54;;;;;;;20.30;11.55;;;;;;;7.39;75.15;101094.13;4149182;28;20037;-65
2022/11/06 00:46:01;;;;;;;16.33;10.73;;;;;;;7.37;75.52;101085.44;4150066;28;20084;-65
2022/11/06 00:48:04;;;;;;;20.30;12.43;;;;;;;7.41;75.48;101080.44;4149561;28;20044;-66
2022/11/06 00:50:08;;;;;;;14.25;10.77;;;;;;;7.50;74.34;101083.38;4149917;28;20053;-65
2022/11/06 00:52:12;;;;;;;17.48;10.95;;;;;;;7.39;74.78;101083.78;4149441;28;20046;-65
2022/11/06 00:54:15;;;;;;;15.18;11.07;;;;;;;7.32;75.17;101075.81;4149180;28;20034;-65
2022/11/06 00:56:19;;;;;;;21.38;12.30;;;;;;;7.37;75.04;101075.09;4148624;28;20037;-65
2022/11/06 00:58:22;;;;;;;15.73;10.95;;;;;;;7.30;75.28;101067.13;4149345;28;20092;-65
2022/11/06 01:00:25;;;;;;;16.50;11.00;;;;;;;7.33;75.16;101062.06;4148294;28;20069;-65
2022/11/06 01:02:28;;;;;;;18.60;11.40;;;;;;;7.27;75.51;101067.00;4149116;28;20052;-65
2022/11/06 01:04:31;;;;;;;17.15;10.88;;;;;;;7.28;75.05;101073.06;4148405;28;20096;-65
2022/11/06 01:06:36;;;;;;;18.00;11.05;;;;;;;7.29;74.97;101075.69;4149298;28;20095;-65
2022/11/06 01:08:40;;;;;;;;;;;;;;;7.18;75.30;101074.41;4149852;28;20496;-64
2022/11/06 01:10:42;;;;;;;17.02;10.63;;;;;;;7.19;75.75;101075.31;4149108;28;19943;-64
2022/11/06 01:12:45;;;;;;;17.20;11.15;;;;;;;7.36;74.76;101074.22;4149241;28;20038;-65
2022/11/06 01:14:48;;;;;;;16.58;9.90;;;;;;;7.27;74.95;101067.00;4147992;28;20038;-66
2022/11/06 01:16:51;;;;;;;14.75;10.60;;;;;;;7.24;74.94;101066.91;4141398;28;20447;-65
2022/11/06 01:18:55;;;;;;;16.95;10.32;;;;;;;7.29;74.93;101073.09;4149251;28;20034;-65
2022/11/06 01:20:58;;;;;;;13.48;9.73;;;;;;;7.26;74.97;101075.59;4149454;28;20057;-65
2022/11/06 01:23:02;;;;;;;20.35;10.40;;;;;;;7.24;74.99;101076.34;4146344;28;20043;-65
2022/11/06 01:25:08;;;;;;;16.10;11.48;;;;;;;7.14;75.74;101072.50;4148802;28;20037;-65
2022/11/06 01:27:11;;;;;;;14.32;10.75;;;;;;;7.11;75.90;101072.41;4149228;28;20038;-65
2022/11/06 01:29:28;;;;;;;13.85;8.93;;;;;;;7.15;75.58;101066.53;4148972;28;20045;-66
2022/11/06 01:31:33;;;;;;;16.73;10.25;;;;;;;7.14;75.85;101063.06;4147739;28;20054;-65
2022/11/06 01:33:36;;;;;;;16.33;10.27;;;;;;;7.12;75.26;101059.53;4147374;28;20558;-65
2022/11/06 01:35:44;;;;;;;17.88;10.60;;;;;;;7.16;75.22;101055.38;4149089;28;20545;-65
2022/11/06 01:37:47;;;;;;;16.38;9.85;;;;;;;7.10;75.96;101053.44;4148054;28;20042;-66
2022/11/06 01:39:50;;;;;;;18.77;8.60;;;;;;;7.12;75.76;101051.78;4147942;28;20085;-66
2022/11/06 01:41:54;;;;;;;17.27;8.93;;;;;;;7.13;75.49;101047.50;4147841;28;20046;-66
2022/11/06 01:43:58;;;;;;;15.70;9.30;;;;;;;7.08;75.57;101049.03;4146688;28;20519;-66
2022/11/06 01:46:01;;;;;;;13.13;8.95;;;;;;;7.16;75.55;101045.03;4142465;28;20045;-66
2022/11/06 01:48:05;;;;;;;13.77;9.15;;;;;;;7.14;75.68;101049.25;4163211;28;20180;-66
2022/11/06 01:50:11;;;;;;;16.88;10.15;;;;;;;7.19;75.17;101041.69;4131364;28;20054;-66
2022/11/06 01:52:16;;;;;;;18.20;10.13;;;;;;;7.17;75.65;101039.06;4132661;28;20524;-66
2022/11/06 01:54:20;;;;;;;13.90;9.93;;;;;;;7.08;75.81;101034.41;4146187;28;20042;-66
2022/11/06 01:56:24;;;;;;;15.68;9.95;;;;;;;7.14;75.56;101031.16;4148735;28;20045;-66
2022/11/06 01:58:32;;;;;;;15.82;9.80;;;;;;;7.19;74.81;101016.69;4147121;28;20103;-66
2022/11/06 02:00:35;;;;;;;15.57;9.85;;;;;;;7.16;74.86;101007.13;4147225;28;20057;-66
2022/11/06 02:02:38;;;;;;;17.85;10.05;;;;;;;7.06;75.35;101009.31;4148579;28;20045;-66
2022/11/06 02:04:44;;;;;;;17.60;10.33;;;;;;;7.05;75.38;101002.38;4146904;28;20044;-66
2022/11/06 02:06:48;;;;;;;20.45;10.35;;;;;;;7.09;75.73;100993.91;4147677;28;20042;-66
2022/11/06 02:08:51;;;;;;;15.30;9.30;;;;;;;7.02;75.95;100994.50;4147148;28;20124;-65
2022/11/06 02:10:54;;;;;;;17.70;10.00;;;;;;;6.99;76.42;100997.84;4147177;28;20450;-66
2022/11/06 02:13:17;;;;;;;12.07;8.43;;;;;;;7.01;75.67;100988.47;4146756;28;20049;-66
2022/11/06 02:15:30;;;;;;;14.45;9.52;;;;;;;7.03;75.83;100997.16;4145940;28;20404;-66
2022/11/06 02:17:49;;;;;;;19.48;8.68;;;;;;;6.92;76.12;101006.19;4133662;28;20045;-66
2022/11/06 02:20:01;;;;;;;17.60;9.90;;;;;;;6.97;76.29;101007.28;4145059;28;20496;-66
2022/11/06 02:22:26;;;;;;;19.02;9.85;;;;;;;6.99;76.03;101005.59;4148105;28;20041;-66
2022/11/06 02:25:07;;;;;;;15.73;8.77;;;;;;;6.94;76.10;100995.09;4162631;28;20050;-66
2022/11/06 02:27:13;;;;;;;13.80;8.60;;;;;;;6.89;76.38;100999.22;4145903;28;20062;-66
2022/11/06 02:29:21;;;;;;;14.82;9.63;;;;;;;6.88;76.32;100991.41;4136670;28;20038;-66
2022/11/06 02:31:28;;;;;;;15.20;9.38;;;;;;;6.88;76.73;100994.88;4141661;28;20046;-66
2022/11/06 02:33:35;;;;;;;13.88;9.25;;;;;;;6.92;76.42;100991.59;4147623;28;20107;-66
2022/11/06 02:35:43;;;;;;;13.85;9.98;;;;;;;6.95;76.04;100990.81;4147739;28;20065;-66
2022/11/06 02:37:48;;;;;;;14.60;10.35;;;;;;;6.98;76.12;100990.94;4147987;28;20088;-66
2022/11/06 02:39:52;;;;;;;15.88;9.75;;;;;;;6.94;76.00;100991.66;4148006;28;20092;-66
2022/11/06 02:41:59;;;;;;;13.43;7.85;;;;;;;6.87;75.95;100987.06;4148219;28;20045;-66
2022/11/06 02:44:07;;;;;;;16.23;9.52;;;;;;;7.04;75.72;100977.34;4146628;28;20037;-66
2022/11/06 02:46:17;;;;;;;16.20;10.00;;;;;;;6.91;75.89;100979.47;4142482;28;20037;-66
2022/11/06 02:48:27;;;;;;;18.58;10.43;;;;;;;6.91;75.74;100979.47;4147466;28;20069;-66
2022/11/06 02:50:32;;;;;;;13.20;9.18;;;;;;;6.91;75.50;100979.47;4146935;28;20050;-66
2022/11/06 02:52:40;;;;;;;18.95;9.30;;;;;;;6.96;75.41;100975.34;4146901;28;20049;-66
2022/11/06 02:54:47;;;;;;;13.57;9.25;;;;;;;6.91;75.53;100988.94;4129914;28;20130;-66
2022/11/06 02:56:52;;;;;;;14.73;9.38;;;;;;;6.80;75.99;100994.59;4147788;28;20407;-66
2022/11/06 02:59:01;;;;;;;16.98;9.40;;;;;;;6.85;75.88;101002.53;4147768;28;20065;-66
2022/11/06 03:01:12;;;;;;;13.57;9.07;;;;;;;6.85;75.46;100999.94;4146678;28;20084;-66
2022/11/06 03:03:21;;;;;;;13.93;7.97;;;;;;;6.82;76.17;100994.66;4138207;28;20042;-66
2022/11/06 03:05:29;;;;;;;14.52;9.43;;;;;;;6.88;75.66;100984.53;4146726;28;20040;-66
2022/11/06 03:07:37;;;;;;;13.70;9.68;;;;;;;6.97;75.08;100997.81;4147395;28;20038;-66
2022/11/06 03:09:40;;;;;;;15.15;9.70;;;;;;;6.82;75.81;100995.53;4147604;28;20045;-67
2022/11/06 03:11:45;;;;;;;12.07;8.43;;;;;;;6.77;75.96;100997.03;4147613;28;20037;-66
2022/11/06 03:13:56;;;;;;;16.00;9.48;;;;;;;6.86;76.14;100996.50;4147132;28;20144;-66
2022/11/06 03:16:05;;;;;;;15.05;9.48;;;;;;;6.81;75.93;100985.13;4146436;28;20613;-66
2022/11/06 03:18:13;;;;;;;15.95;9.45;;;;;;;6.83;75.99;100991.22;4143533;28;20046;-66
2022/11/06 03:20:22;;;;;;;14.35;9.88;;;;;;;6.78;75.90;100985.88;4146463;28;20129;-66
2022/11/06 03:22:31;;;;;;;14.63;9.93;;;;;;;6.73;75.78;100973.63;4147434;28;20480;-66
2022/11/06 03:24:40;;;;;;;16.05;9.32;;;;;;;6.68;76.65;100977.75;4147131;28;20041;-66
2022/11/06 03:26:47;;;;;;;12.85;9.05;;;;;;;6.68;76.09;100978.59;4143390;28;20088;-66
2022/11/06 03:28:54;;;;;;;13.90;8.60;;;;;;;6.66;76.22;100987.13;4147576;28;20046;-65
2022/11/06 03:31:01;;;;;;;16.13;9.02;;;;;;;6.76;76.36;100984.97;4146451;28;20042;-66
2022/11/06 03:33:13;;;;;;;13.18;8.77;;;;;;;6.72;75.46;100982.22;4147709;28;20049;-66
2022/11/06 03:35:21;;;;;;;15.80;9.85;;;;;;;6.71;75.69;100981.31;4146688;28;20049;-66
2022/11/06 03:37:30;;;;;;;12.10;8.15;;;;;;;6.72;75.32;100987.38;4147573;28;20407;-66
2022/11/06 03:39:37;;;;;;;14.27;10.82;;;;;;;6.56;76.27;100980.72;4147518;28;20069;-66
2022/11/06 03:41:43;;;;;;;16.70;8.55;;;;;;;6.60;76.22;100977.41;4147822;28;20045;-66
2022/11/06 03:43:50;;;;;;;14.00;9.57;;;;;;;6.53;76.17;100972.88;4147168;28;20046;-65
2022/11/06 03:45:56;;;;;;;14.32;9.73;;;;;;;6.54;76.70;100970.34;4147571;28;20476;-66
2022/11/06 03:48:08;;;;;;;13.52;8.77;;;;;;;6.57;75.95;100961.81;4145342;28;20084;-66
2022/11/06 03:50:16;;;;;;;10.93;7.97;;;;;;;6.56;76.29;100950.59;4147351;28;20046;-66
2022/11/06 03:52:24;;;;;;;13.80;8.65;;;;;;;6.62;75.99;100956.00;4147551;28;20069;-66
2022/11/06 03:54:32;;;;;;;13.57;7.95;;;;;;;6.54;76.33;100957.44;4147083;28;20046;-66
2022/11/06 03:56:40;;;;;;;13.07;8.57;;;;;;;6.57;75.84;100954.97;4147329;28;20034;-66
2022/11/06 03:58:46;;;;;;;20.00;8.90;;;;;;;6.58;76.09;100948.94;4145482;28;20089;-66
2022/11/06 04:00:51;;;;;;;14.57;8.68;;;;;;;6.55;76.05;100947.97;4137194;28;20076;-66
2022/11/06 04:03:03;;;;;;;14.57;7.90;;;;;;;6.62;75.58;100945.66;4147328;28;20038;-66
2022/11/06 04:05:11;;;;;;;12.82;8.85;;;;;;;6.48;75.95;100941.66;4150045;28;20048;-66
2022/11/06 04:07:19;;;;;;;11.70;8.18;;;;;;;6.51;75.38;100941.78;4150247;28;20045;-66
2022/11/06 04:14:13;;;;;;;11.75;8.80;;;;;;;6.35;76.04;100944.59;4134895;28;20045;-66
2022/11/06 04:16:17;;;;;;;13.18;8.10;;;;;;;6.41;75.87;100944.84;4148884;28;20042;-66
2022/11/06 04:18:20;;;;;;;13.27;7.80;;;;;;;6.42;76.03;100938.84;4148973;28;20073;-66
2022/11/06 04:23:06;;;;;;;11.57;8.35;;;;;;;6.45;75.42;100928.63;4149160;28;20323;-66
2022/11/06 04:28:05;;;;;;;18.65;8.93;;;;;;;6.28;75.97;100939.19;4149738;28;20152;-66
2022/11/06 04:30:11;;;;;;;10.48;7.60;;;;;;;6.23;76.31;100938.13;4149058;28;20050;-66
2022/11/06 04:32:20;;;;;;;11.07;6.75;;;;;;;6.23;76.80;100950.16;4145427;28;20097;-66
2022/11/06 04:34:33;;;;;;;11.50;7.05;;;;;;;6.23;76.78;100951.03;4149716;28;20064;-66
2022/11/06 04:36:44;;;;;;;12.40;7.43;;;;;;;6.23;77.03;100958.78;4150161;28;20030;-66
2022/11/06 04:38:54;;;;;;;11.57;7.63;;;;;;;6.25;76.71;100969.16;4148894;28;20041;-66
2022/11/06 04:41:11;;;;;;;11.77;7.55;;;;;;;6.26;77.15;100964.09;4149279;28;20042;-66
2022/11/06 04:43:21;;;;;;;11.90;8.05;;;;;;;6.25;77.15;100964.00;4149802;28;20077;-66
2022/11/06 04:45:28;;;;;;;11.23;7.68;;;;;;;6.25;76.81;100970.06;4149834;28;20073;-66
2022/11/06 04:47:31;;;;;;;11.23;7.35;;;;;;;6.23;76.96;100966.53;4149892;28;20058;-66
2022/11/06 04:49:37;;;;;;;13.15;7.25;;;;;;;6.24;76.72;100968.28;4149869;28;20080;-66
2022/11/06 04:51:43;;;;;;;12.38;7.55;;;;;;;6.25;76.49;100970.06;4149863;28;20144;-67
2022/11/06 04:53:51;;;;;;;9.73;6.25;;;;;;;6.24;75.97;100957.09;4147507;28;20479;-66
2022/11/06 04:55:59;;;;;;;10.30;7.03;;;;;;;6.30;76.09;100947.00;4141064;28;20045;-66
2022/11/06 04:58:02;;;;;;;12.98;8.23;;;;;;;6.25;75.91;100957.16;4149744;28;20038;-66
2022/11/06 05:00:06;;;;;;;14.60;9.05;;;;;;;6.25;75.63;100957.16;4149215;28;20034;-66
2022/11/06 05:02:10;;;;;;;9.83;7.17;;;;;;;6.24;75.27;100963.13;4149503;28;20088;-66
2022/11/06 05:04:15;;;;;;;13.77;8.55;;;;;;;6.20;75.56;100961.25;4147042;28;20539;-66
2022/11/06 05:06:18;;;;;;;15.15;9.40;;;;;;;6.29;75.52;100971.97;4149252;28;20029;-66
2022/11/06 05:08:21;;;;;;;11.52;7.80;;;;;;;6.21;75.61;100975.94;4149188;28;20049;-66
2022/11/06 05:10:25;;;;;;;12.02;7.05;;;;;;;6.24;75.44;100980.34;4149105;28;20042;-66
2022/11/06 05:12:28;;;;;;;12.77;7.28;;;;;;;6.24;75.60;100978.63;4148970;28;20420;-66
2022/11/06 05:14:32;;;;;;;10.63;7.18;;;;;;;6.25;75.58;100970.06;4147324;28;20050;-66
2022/11/06 05:16:38;;;;;;;12.15;8.38;;;;;;;6.27;75.44;100968.41;4148787;28;20448;-66
2022/11/06 05:18:41;;;;;;;11.70;8.70;;;;;;;6.25;75.68;100967.50;4149105;28;20124;-66
2022/11/06 05:20:44;;;;;;;14.63;8.35;;;;;;;6.32;75.14;100959.97;4131720;28;20512;-66
2022/11/06 05:22:59;;;;;;;12.25;7.50;;;;;;;6.41;75.25;100950.91;4149212;28;20042;-66
2022/11/06 05:25:02;;;;;;;15.30;8.10;;;;;;;6.26;75.64;100940.84;4133561;28;20345;-66
2022/11/06 05:27:06;;;;;;;14.65;8.50;;;;;;;6.32;75.12;100939.31;4144964;28;20504;-66
2022/11/06 05:29:09;;;;;;;11.07;6.72;;;;;;;6.25;74.87;100941.66;4146027;28;20705;-66
2022/11/06 05:31:11;;;;;;;11.10;7.93;;;;;;;6.24;74.85;100929.56;4148884;28;20103;-66
2022/11/06 05:33:14;;;;;;;13.05;7.78;;;;;;;6.19;75.41;100936.28;4147600;28;20065;-66
2022/11/06 05:35:18;;;;;;;13.80;8.52;;;;;;;6.13;75.73;100929.97;4147789;28;20400;-66
2022/11/06 05:37:20;;;;;;;10.55;8.10;;;;;;;6.10;76.03;100933.31;4148732;28;20033;-66
2022/11/06 05:39:23;;;;;;;11.88;8.25;;;;;;;6.08;76.19;100934.94;4147777;28;20061;-66
2022/11/06 05:41:26;;;;;;;15.23;7.25;;;;;;;6.05;76.13;100935.69;4146902;28;20046;-66
2022/11/06 05:43:30;;;;;;;9.65;7.22;;;;;;;6.09;76.25;100941.88;4148331;28;20137;-66
2022/11/06 05:45:33;;;;;;;11.35;7.90;;;;;;;6.23;75.03;100934.69;4147597;28;20038;-66
2022/11/06 05:47:39;;;;;;;12.68;8.40;;;;;;;6.17;75.53;100934.44;4148757;28;20549;-66
2022/11/06 05:49:41;;;;;;;9.65;6.75;;;;;;;6.15;75.67;100925.72;4147538;28;20045;-66
2022/11/06 05:51:44;;;;;;;11.35;7.55;;;;;;;6.23;75.22;100907.16;4148590;28;20046;-66
2022/11/06 05:53:47;;;;;;;13.98;7.30;;;;;;;6.08;75.44;100898.81;4147661;28;20523;-65
2022/11/06 05:55:50;;;;;;;9.38;7.07;;;;;;;6.18;75.06;100900.06;4155992;28;20466;-65
2022/11/06 05:57:53;;;;;;;10.77;7.43;;;;;;;6.08;75.24;100899.69;4146921;28;20092;-65
2022/11/06 05:59:57;;;;;;;12.27;7.78;;;;;;;6.05;75.70;100898.69;4147070;28;20046;-65
2022/11/06 06:01:59;;;;;;;11.38;7.25;;;;;;;6.05;75.85;100893.53;4142588;28;20109;-65
2022/11/06 06:04:02;;;;;;;9.55;6.60;;;;;;;6.05;75.72;100893.53;4132300;28;20121;-65
2022/11/06 06:06:06;;;;;;;13.50;7.95;;;;;;;6.07;75.51;100895.34;4141726;28;20167;-65
2022/11/06 06:08:09;;;;;;;12.88;7.35;;;;;;;6.10;75.78;100892.91;4146974;28;20045;-66
2022/11/06 06:10:12;;;;;;;12.73;6.95;;;;;;;6.02;75.82;100891.72;4148557;28;20041;-65
2022/11/06 06:12:15;;;;;;;11.77;7.68;;;;;;;5.99;75.87;100895.88;4148461;28;20045;-66
2022/11/06 06:14:18;;;;;;;13.30;7.60;;;;;;;6.07;75.72;100890.16;4147745;28;20046;-66
2022/11/06 06:16:22;;;;;;;13.55;7.68;;;;;;;5.96;76.04;100888.84;4146586;28;20030;-65
2022/11/06 06:18:25;;;;;;;13.98;7.90;;;;;;;5.99;76.30;100886.44;4143789;28;20468;-66
2022/11/06 06:20:28;;;;;;;11.18;7.88;;;;;;;6.02;76.23;100885.69;4148330;28;20077;-65
2022/11/06 06:22:31;;;;;;;11.30;6.88;;;;;;;5.94;75.99;100875.91;4148275;28;20045;-66
2022/11/06 06:24:34;;;;;;;10.32;7.38;;;;;;;6.04;75.66;100868.53;4146684;28;20100;-65
2022/11/06 06:26:37;;;;;;;9.70;7.45;;;;;;;6.08;75.91;100860.09;4147303;28;20048;-66
2022/11/06 06:28:40;;;;;;;11.57;7.97;;;;;;;6.02;76.08;100862.44;4145124;28;20041;-66
2022/11/06 06:30:42;;;;;;;13.07;8.07;;;;;;;5.94;76.41;100863.00;4144249;28;20038;-65
2022/11/06 06:32:47;;;;;;;11.60;7.43;;;;;;;5.94;76.33;100864.69;4146151;28;20044;-66
2022/11/06 06:34:49;;;;;;;12.23;7.70;;;;;;;5.93;76.01;100856.06;4144060;28;20038;-66
2022/11/06 06:36:53;;;;;;;11.27;7.78;;;;;;;5.89;76.29;100856.75;4146589;28;20053;-66
2022/11/06 06:38:56;;;;;;;11.53;7.10;;;;;;;5.95;76.30;100846.66;4148063;28;20488;-67
2022/11/06 06:41:03;;;;;;;13.88;8.48;;;;;;;5.94;75.80;100844.94;4147422;28;20038;-65
2022/11/06 06:43:06;;;;;;;11.52;7.45;;;;;;;6.06;75.51;100835.91;4146398;28;20077;-67
2022/11/06 06:45:10;;;;;;;12.27;8.50;;;;;;;5.99;75.83;100828.78;4130000;28;20459;-66
2022/11/06 06:47:15;;;;;;;12.77;8.00;;;;;;;6.01;75.72;100834.88;4147759;28;20384;-67
2022/11/06 06:49:19;;;;;;;12.45;7.53;;;;;;;5.94;76.02;100833.72;4146750;28;20082;-66
2022/11/06 06:51:22;;;;;;;10.70;7.68;;;;;;;5.96;75.89;100826.94;4129331;28;20061;-66
2022/11/06 06:53:26;;;;;;;11.82;7.68;;;;;;;5.97;75.76;100822.63;4143933;28;20042;-67
2022/11/06 06:55:29;;;;;;;11.90;8.65;;;;;;;5.94;75.75;100823.38;4147664;28;20099;-67
2022/11/06 06:57:32;;;;;;;12.75;9.60;;;;;;;6.05;75.13;100818.69;4146339;28;20033;-67
2022/11/06 06:59:35;;;;;;;14.20;8.65;;;;;;;5.92;75.32;100812.13;4147517;28;20069;-66
2022/11/06 07:01:38;;;;;;;11.80;8.73;;;;;;;5.89;75.82;100807.72;4145791;28;20443;-66
2022/11/06 07:03:41;;;;;;;15.00;10.15;;;;;;;5.90;76.08;100812.09;4144862;28;20038;-66
2022/11/06 07:05:46;;;;;;;12.45;8.60;;;;;;;5.87;76.00;100799.06;4145463;28;20048;-66
2022/11/06 07:07:48;;;;;;;14.18;10.05;;;;;;;5.87;75.80;100804.22;4147490;28;20037;-66
2022/11/06 07:09:52;;;;;;;14.93;10.10;;;;;;;5.98;75.10;100814.13;4147549;28;20068;-67
2022/11/06 07:11:54;;;;;;;13.45;9.95;;;;;;;5.98;75.87;100819.28;4147240;28;20049;-66
2022/11/06 07:13:57;;;;;;;15.27;10.50;;;;;;;5.97;76.36;100817.47;4146716;28;20049;-66
2022/11/06 07:16:02;;;;;;;12.18;9.15;;;;;;;6.01;76.43;100816.81;4147642;28;20034;-67
2022/11/06 07:18:06;;;;;;;13.10;9.70;;;;;;;6.06;76.37;100818.75;4147576;28;20030;-66
2022/11/06 07:20:11;;;;;;;12.23;8.50;;;;;;;6.08;76.36;100811.06;4147992;28;20073;-65
2022/11/06 07:22:15;;;;;;;13.00;8.13;;;;;;;6.09;77.03;100807.66;4146144;28;20050;-65
2022/11/06 07:24:18;;;;;;;12.32;9.05;;;;;;;6.22;75.76;100804.72;4145706;28;20443;-65
2022/11/06 07:26:20;;;;;;;15.70;9.70;;;;;;;6.21;75.86;100797.78;4144042;28;20424;-65
2022/11/06 07:28:23;;;;;;;13.85;9.27;;;;;;;6.21;75.96;100792.63;4148458;28;20081;-65
2022/11/06 07:30:26;;;;;;;11.73;8.65;;;;;;;6.19;75.61;100801.13;4147582;28;20045;-65
2022/11/06 07:32:30;;;;;;;14.13;9.55;;;;;;;6.19;75.90;100796.88;4147535;28;20038;-68
2022/11/06 07:34:33;;;;;;;12.18;8.43;;;;;;;6.22;75.88;100793.50;4129946;28;20061;-65
2022/11/06 07:36:36;;;;;;;13.13;8.63;;;;;;;6.22;75.77;100794.41;4147668;28;20502;-65
2022/11/06 07:38:42;;;;;;;12.93;8.63;;;;;;;6.25;75.89;100794.50;4149482;28;20034;-66
2022/11/06 07:40:44;;;;;;;10.45;7.85;;;;;;;6.24;75.76;100787.56;4149311;28;20092;-66
2022/11/06 07:42:47;;;;;;;13.90;8.70;;;;;;;6.32;76.02;100795.59;4150770;28;20530;-66
2022/11/06 07:44:54;;;;;;;16.65;10.57;;;;;;;6.36;75.58;100796.59;4148967;28;20496;-66
2022/11/06 07:46:57;;;;;;;14.25;8.23;;;;;;;6.35;75.85;100800.91;4149408;28;20085;-65
2022/11/06 07:48:59;;;;;;;15.05;8.43;;;;;;;6.30;76.02;100807.56;4150291;28;20092;-66
2022/11/06 07:51:04;;;;;;;10.02;7.78;;;;;;;6.30;75.99;100807.56;4150592;28;20038;-66
2022/11/06 07:53:06;;;;;;;15.10;9.43;;;;;;;6.43;75.48;100808.91;4149101;28;20038;-66
2022/11/06 07:55:11;;;;;;;13.70;7.80;;;;;;;6.45;75.48;100807.25;4149084;28;20136;-66
2022/11/06 07:57:14;;;;;;;13.05;8.93;;;;;;;6.41;75.62;100808.88;4149272;28;20084;-66
2022/11/06 07:59:17;;;;;;;10.80;7.45;;;;;;;6.45;75.50;100820.16;4149524;28;20036;-67
2022/11/06 08:01:20;;;;;;;11.73;8.23;;;;;;;6.39;75.88;100820.81;4150498;28;20042;-66
2022/11/06 08:03:24;;;;;;;13.50;9.07;;;;;;;6.41;76.09;100826.03;4149911;28;20053;-66
2022/11/06 08:05:27;;;;;;;11.35;7.72;;;;;;;6.44;75.73;100828.75;4149340;28;20038;-66
2022/11/06 08:07:30;;;;;;;12.57;8.73;;;;;;;6.32;76.37;100833.47;4150227;28;20412;-67
2022/11/06 08:09:32;;;;;;;12.18;8.93;;;;;;;6.18;76.41;100843.28;4148238;28;20411;-66
2022/11/06 08:11:37;;;;;;;11.60;8.82;;;;;;;6.03;76.74;100865.09;4149343;28;20034;-67
2022/11/06 08:13:40;;;;;;;14.45;10.07;;;;;;;6.05;77.34;100878.06;4149542;28;20104;-66
2022/11/06 08:15:43;;;;;;;15.52;10.77;;;;;;;6.16;77.47;100879.31;4149793;28;20053;-65
2022/11/06 08:17:46;;;;;;;17.23;13.05;;;;;;;6.24;76.79;100870.19;4149448;28;20156;-66
2022/11/06 08:19:49;;;;;;;14.73;11.35;;;;;;;6.29;76.83;100855.78;4147824;28;20088;-66
2022/11/06 08:21:52;;;;;;;16.40;13.07;;;;;;;6.33;76.25;100855.88;4149263;28;20034;-66
2022/11/06 08:23:54;;;;;;;20.23;14.95;;;;;;;6.31;76.54;100860.09;4149845;28;20036;-66
2022/11/06 08:25:59;;;;;;;18.92;14.23;;;;;;;6.08;76.45;100852.34;4150330;28;20042;-66
2022/11/06 08:28:03;;;;;;;17.38;13.30;;;;;;;6.03;76.92;100856.44;4148761;28;20112;-66
2022/11/06 08:30:07;;;;;;;14.73;11.35;;;;;;;5.93;77.36;100856.06;4150227;28;20129;-66
2022/11/06 08:32:11;;;;;;;14.27;12.00;;;;;;;5.92;77.36;100862.03;4130375;28;20097;-66
2022/11/06 08:34:14;;;;;;;14.65;10.95;;;;;;;5.85;77.19;100860.03;4148867;28;20045;-66
2022/11/06 08:36:17;;;;;;;14.10;10.98;;;;;;;5.84;77.72;100863.44;4146930;28;20462;-66
2022/11/06 08:38:20;;;;;;;16.02;11.32;;;;;;;5.97;77.49;100858.75;4141733;28;20042;-66
2022/11/06 08:40:23;;;;;;;14.73;10.68;;;;;;;6.08;77.26;100862.69;4153713;28;20058;-67
2022/11/06 08:42:32;;;;;;;15.20;11.75;;;;;;;5.96;77.04;100860.47;4141579;28;20034;-65
2022/11/06 08:44:36;;;;;;;16.50;11.68;;;;;;;5.99;77.66;100859.75;4145278;28;20088;-66
2022/11/06 08:46:39;;;;;;;14.88;11.73;;;;;;;6.02;77.52;100852.13;4143661;28;20038;-66
2022/11/06 08:48:42;;;;;;;14.45;10.85;;;;;;;6.16;77.53;100845.78;4136476;28;20447;-66
2022/11/06 08:50:45;;;;;;;14.05;10.85;;;;;;;6.29;77.33;100841.97;4138005;28;20113;-66
2022/11/06 08:52:48;;;;;;;16.25;12.18;;;;;;;6.14;76.64;100831.94;4135175;28;20049;-66
2022/11/06 08:54:51;;;;;;;14.70;11.02;;;;;;;6.18;76.92;100826.06;4148593;28;20045;-66
2022/11/06 08:56:54;;;;;;;15.35;11.52;;;;;;;6.23;77.44;100818.50;4148369;28;20045;-66
2022/11/06 08:58:57;;;;;;;14.40;11.77;;;;;;;6.26;77.32;100806.59;4149641;28;20180;-66
2022/11/06 09:01:01;;;;;;;16.90;12.65;;;;;;;6.52;76.63;100793.75;4143135;28;20042;-67
2022/11/06 09:03:10;;;;;;;17.75;12.82;;;;;;;6.54;76.60;100786.06;4133945;28;20583;-66
2022/11/06 09:05:14;;;;;;;16.13;11.65;;;;;;;6.62;76.58;100785.50;4145154;28;20504;-65
2022/11/06 09:07:17;;;;;;;16.15;12.77;;;;;;;6.82;76.20;100787.91;4145584;28;20088;-65
2022/11/06 09:09:20;;;;;;;19.33;12.70;;;;;;;6.75;75.71;100797.16;4145371;28;20033;-65
2022/11/06 09:11:23;;;;;;;15.07;11.23;;;;;;;6.78;75.89;100796.38;4144284;28;20062;-70
2022/11/06 09:13:26;;;;;;;15.13;11.93;;;;;;;6.91;76.33;100782.19;4144957;28;20034;-62
2022/11/06 09:15:29;;;;;;;15.02;11.98;;;;;;;7.06;75.42;100766.31;4141912;28;20437;-63
2022/11/06 09:17:33;;;;;;;13.10;9.90;;;;;;;7.15;75.63;100769.19;4163646;28;20049;-63
2022/11/06 09:19:36;;;;;;;13.95;10.30;;;;;;;7.19;75.44;100762.44;4144926;28;20026;-65
2022/11/06 09:21:39;;;;;;;18.83;11.82;;;;;;;7.46;74.99;100754.66;4146928;28;20107;-65
2022/11/06 09:23:47;;;;;;;12.18;8.82;;;;;;;7.56;74.93;100742.91;4148431;28;20042;-65
2022/11/06 09:25:50;;;;;;;10.95;7.95;;;;;;;7.66;74.96;100739.75;4147965;28;20049;-66
2022/11/06 09:27:53;;;;;;;11.13;8.15;;;;;;;7.81;75.00;100735.06;4149186;28;20041;-66
2022/11/06 09:30:01;;;;;;;11.25;8.45;;;;;;;7.93;73.48;100733.66;4148078;28;20037;-64
2022/11/06 09:32:04;;;;;;;14.00;8.85;;;;;;;8.14;72.39;100729.09;4146853;28;20038;-68
2022/11/06 09:34:08;;;;;;;12.35;7.55;;;;;;;8.18;70.81;100719.72;4148149;28;20120;-65
2022/11/06 09:36:11;;;;;;;10.52;6.85;;;;;;;8.03;70.83;100720.13;4149021;28;20041;-64
2022/11/06 09:38:15;;;;;;;8.05;5.80;;;;;;;8.15;70.70;100714.47;4147718;28;20050;-64
2022/11/06 09:40:21;;;;;;;10.82;6.45;;;;;;;8.24;69.91;100706.94;4131499;28;20049;-70
2022/11/06 09:42:37;;;;;;;9.35;7.00;;;;;;;8.32;69.99;100699.38;4143768;28;20128;-67
2022/11/06 09:44:57;;;;;;;14.77;10.32;;;;;;;8.37;69.33;100698.66;4144612;28;20049;-66
2022/11/06 09:47:04;;;;;;;11.60;7.32;;;;;;;8.35;69.62;100694.25;4146789;28;20042;-67
2022/11/06 09:49:16;;;;;;;8.57;6.32;;;;;;;8.54;69.00;100700.84;4131275;28;20056;-72
2022/11/06 09:51:29;;;;;;;9.55;6.07;;;;;;;8.56;68.75;100702.66;4138923;28;20504;-73